createdAt,value
2023-03-25T00:01:18.997Z,99832.28
2023-03-25T00:03:50.737Z,99822.25
2023-03-25T00:06:20.557Z,99826.38
2023-03-25T00:08:49.052Z,99836.03
2023-03-25T00:11:17.553Z,99818.78
2023-03-25T00:13:45.805Z,99830.88
2023-03-25T00:16:14.652Z,99837.09
2023-03-25T00:18:43.487Z,99822.81
2023-03-25T00:21:12.226Z,99822.53
2023-03-25T00:23:42.715Z,99838.69
2023-03-25T00:26:11.823Z,99825.28
2023-03-25T00:28:40.423Z,99828.91
2023-03-25T00:31:12.913Z,99821.22
2023-03-25T00:33:43.011Z,99835.75
2023-03-25T00:36:15.031Z,99834.84
2023-03-25T00:38:45.606Z,99826.88
2023-03-25T00:41:18.108Z,99822.34
2023-03-25T00:43:47.368Z,99821.41
2023-03-25T00:46:16.324Z,99849.94
2023-03-25T00:48:44.774Z,99840.09
2023-03-25T00:51:14.667Z,99822.53
2023-03-25T00:53:44.044Z,99825.56
2023-03-25T00:56:12.646Z,99815.59
2023-03-25T00:58:40.922Z,99831.78
2023-03-25T01:01:13.457Z,99816.72
2023-03-25T01:03:43.936Z,99842.69
2023-03-25T01:06:13.142Z,99839.22
2023-03-25T01:08:43.082Z,99832.19
2023-03-25T01:11:23.973Z,99824.50
2023-03-25T01:13:52.402Z,99832.63
2023-03-25T01:16:20.739Z,99820.16
2023-03-25T01:18:49.098Z,99815.31
2023-03-25T01:21:17.158Z,99834.28
2023-03-25T01:23:45.585Z,99820.50
2023-03-25T01:26:14.021Z,99833.22
2023-03-25T01:28:44.443Z,99821.97
2023-03-25T01:31:16.951Z,99817.53
2023-03-25T01:33:44.927Z,99828.50
2023-03-25T01:36:13.904Z,99822.19
2023-03-25T01:38:43.324Z,99819.69
2023-03-25T01:41:11.850Z,99826.56
2023-03-25T01:43:40.041Z,99810.56
2023-03-25T01:46:15.033Z,99810.34
2023-03-25T01:48:46.700Z,99811.13
2023-03-25T01:51:19.434Z,99816.59
2023-03-25T01:53:48.489Z,99801.41
2023-03-25T01:56:21.562Z,99818.00
2023-03-25T01:58:52.919Z,99806.03
2023-03-25T02:01:22.889Z,99791.16
2023-03-25T02:03:53.115Z,99807.47
2023-03-25T02:06:28.556Z,99796.78
2023-03-25T02:08:59.239Z,99800.13
2023-03-25T02:11:29.431Z,99792.06
2023-03-25T02:14:00.441Z,99790.28
2023-03-25T02:16:39.500Z,99789.72
2023-03-25T02:19:36.525Z,99795.53
2023-03-25T02:22:26.923Z,99796.19
2023-03-25T02:25:19.544Z,99807.81
2023-03-25T02:28:02.954Z,99790.91
2023-03-25T02:30:52.093Z,99793.59
2023-03-25T02:33:42.312Z,99790.91
2023-03-25T02:37:00.131Z,99795.28
2023-03-25T02:39:33.908Z,99795.38
2023-03-25T02:42:08.090Z,99799.97
2023-03-25T02:44:43.136Z,99785.81
2023-03-25T02:47:17.080Z,99790.63
2023-03-25T02:49:49.542Z,99772.19
2023-03-25T02:52:21.161Z,99778.06
2023-03-25T02:54:57.921Z,99792.06
2023-03-25T02:57:29.580Z,99786.06
2023-03-25T02:59:59.104Z,99793.75
2023-03-25T03:02:32.714Z,99784.47
2023-03-25T03:05:01.176Z,99799.56
2023-03-25T03:07:31.567Z,99795.00
2023-03-25T03:10:13.457Z,99776.50
2023-03-25T03:12:59.630Z,99784.50
2023-03-25T03:15:38.968Z,99778.84
2023-03-25T03:18:18.778Z,99779.88
2023-03-25T03:20:56.752Z,99793.03
2023-03-25T03:23:29.910Z,99775.84
2023-03-25T03:26:07.092Z,99773.22
2023-03-25T03:28:45.453Z,99766.03
2023-03-25T03:31:48.551Z,99766.50
2023-03-25T03:34:14.847Z,99776.03
2023-03-25T03:36:47.003Z,99764.16
2023-03-25T03:39:20.903Z,99757.44
2023-03-25T03:41:54.389Z,99758.66
2023-03-25T03:44:28.756Z,99773.75
2023-03-25T03:47:01.143Z,99764.56
2023-03-25T03:49:33.919Z,99763.16
2023-03-25T03:52:09.046Z,99769.03
2023-03-25T03:54:43.542Z,99775.03
2023-03-25T03:57:20.873Z,99770.19
2023-03-25T03:59:54.706Z,99777.97
2023-03-25T04:02:29.125Z,99769.78
2023-03-25T04:05:00.613Z,99770.91
2023-03-25T04:07:38.954Z,99774.81
2023-03-25T04:10:15.966Z,99769.28
2023-03-25T04:12:49.722Z,99774.50
2023-03-25T04:15:18.671Z,99774.88
2023-03-25T04:17:48.097Z,99772.53
2023-03-25T04:20:23.931Z,99774.91
2023-03-25T04:22:52.440Z,99784.19
2023-03-25T04:25:25.220Z,99783.59
2023-03-25T04:27:58.864Z,99767.09
2023-03-25T04:30:31.117Z,99778.97
2023-03-25T04:33:00.650Z,99777.22
2023-03-25T04:35:28.914Z,99773.31
2023-03-25T04:37:57.220Z,99779.41
2023-03-25T04:40:26.089Z,99768.00
2023-03-25T04:42:56.985Z,99770.97
2023-03-25T04:45:25.948Z,99761.50
2023-03-25T04:47:55.044Z,99771.41
2023-03-25T04:50:25.901Z,99771.66
2023-03-25T04:52:57.591Z,99780.34
2023-03-25T04:55:26.388Z,99785.34
2023-03-25T04:57:56.138Z,99773.91
2023-03-25T05:00:26.410Z,99780.66
2023-03-25T05:02:56.925Z,99758.03
2023-03-25T05:05:26.575Z,99764.41
2023-03-25T05:07:58.145Z,99755.06
2023-03-25T05:10:29.575Z,99764.00
2023-03-25T05:13:04.150Z,99758.31
2023-03-25T05:15:35.630Z,99772.53
2023-03-25T05:18:03.841Z,99775.91
2023-03-25T05:20:35.060Z,99777.84
2023-03-25T05:23:03.438Z,99778.75
2023-03-25T05:25:34.463Z,99786.09
2023-03-25T05:28:05.903Z,99781.28
2023-03-25T05:30:39.195Z,99789.03
2023-03-25T05:33:08.084Z,99773.75
2023-03-25T05:35:36.364Z,99778.06
2023-03-25T05:38:04.966Z,99779.28
2023-03-25T05:40:33.890Z,99787.69
2023-03-25T05:43:04.024Z,99784.34
2023-03-25T05:45:32.151Z,99776.84
2023-03-25T05:48:00.851Z,99785.31
2023-03-25T05:50:29.635Z,99783.38
2023-03-25T05:53:00.038Z,99795.44
2023-03-25T05:55:29.120Z,99803.25
2023-03-25T05:57:58.871Z,99797.81
2023-03-25T06:00:30.457Z,99807.19
2023-03-25T06:02:59.307Z,99788.19
2023-03-25T06:05:29.696Z,99789.41
2023-03-25T06:07:58.015Z,99789.25
2023-03-25T06:10:26.313Z,99790.38
2023-03-25T06:12:54.634Z,99792.88
2023-03-25T06:15:29.058Z,99793.63
2023-03-25T06:17:59.643Z,99807.09
2023-03-25T06:20:28.292Z,99787.97
2023-03-25T06:22:56.621Z,99779.06
2023-03-25T06:25:26.891Z,99795.47
2023-03-25T06:27:56.626Z,99782.91
2023-03-25T06:30:25.130Z,99782.47
2023-03-25T06:32:56.375Z,99814.66
2023-03-25T06:35:26.483Z,99780.03
2023-03-25T06:37:54.473Z,99779.91
2023-03-25T06:40:45.088Z,99800.00
2023-03-25T06:43:13.219Z,99802.78
2023-03-25T06:46:01.759Z,99793.44
2023-03-25T06:48:50.714Z,99789.03
2023-03-25T06:51:22.109Z,99801.03
2023-03-25T06:53:50.227Z,99801.44
2023-03-25T06:56:18.715Z,99794.16
2023-03-25T06:58:46.776Z,99799.53
2023-03-25T07:01:14.731Z,99797.50
2023-03-25T07:03:42.763Z,99786.19
2023-03-25T07:06:17.292Z,99788.84
2023-03-25T07:08:46.756Z,99804.97
2023-03-25T07:11:16.405Z,99788.63
2023-03-25T07:13:44.478Z,99792.66
2023-03-25T07:16:14.378Z,99783.38
2023-03-25T07:18:42.914Z,99802.16
2023-03-25T07:21:11.027Z,99789.53
2023-03-25T07:23:39.254Z,99800.28
2023-03-25T07:26:08.883Z,99784.41
2023-03-25T07:28:38.069Z,99803.53
2023-03-25T07:31:08.394Z,99798.19
2023-03-25T07:33:36.566Z,99792.81
2023-03-25T07:36:06.923Z,99810.66
2023-03-25T07:38:35.640Z,99810.34
2023-03-25T07:41:08.861Z,99794.50
2023-03-25T07:43:36.950Z,99794.94
2023-03-25T07:46:27.487Z,99797.28
2023-03-25T07:48:55.774Z,99854.34
2023-03-25T07:51:24.111Z,99818.41
2023-03-25T07:53:52.395Z,99796.59
2023-03-25T07:56:21.825Z,99815.34
2023-03-25T07:58:49.908Z,99855.44
2023-03-25T08:01:17.927Z,99818.88
2023-03-25T08:03:46.115Z,99834.25
2023-03-25T08:06:14.346Z,99835.09
2023-03-25T08:08:42.689Z,99821.13
2023-03-25T08:11:11.211Z,99815.00
2023-03-25T08:13:41.122Z,99837.53
2023-03-25T08:16:13.330Z,99814.72
2023-03-25T08:18:44.891Z,99820.06
2023-03-25T08:21:13.344Z,99815.72
2023-03-25T08:23:42.136Z,99826.94
2023-03-25T08:26:10.371Z,99830.16
2023-03-25T08:28:39.915Z,99836.22
2023-03-25T08:31:09.546Z,99830.28
2023-03-25T08:33:41.296Z,99832.13
2023-03-25T08:36:10.659Z,99813.81
2023-03-25T08:38:38.757Z,99829.13
2023-03-25T08:41:06.849Z,99819.66
2023-03-25T08:43:34.948Z,99821.69
2023-03-25T08:46:04.731Z,99819.72
2023-03-25T08:48:33.088Z,99835.84
2023-03-25T08:51:01.423Z,99834.16
2023-03-25T08:53:29.480Z,99830.88
2023-03-25T08:55:59.116Z,99825.47
2023-03-25T08:58:27.935Z,99832.28
2023-03-25T09:00:57.473Z,99824.66
2023-03-25T09:03:28.383Z,99828.09
2023-03-25T09:05:57.352Z,99837.88
2023-03-25T09:08:26.684Z,99831.66
2023-03-25T09:10:56.754Z,99833.41
2023-03-25T09:13:24.964Z,99834.16
2023-03-25T09:15:53.430Z,99827.97
2023-03-25T09:18:21.746Z,99832.34
2023-03-25T09:20:52.221Z,99823.75
2023-03-25T09:23:20.187Z,99827.22
2023-03-25T09:25:48.789Z,99830.53
2023-03-25T09:28:17.059Z,99828.13
2023-03-25T09:30:46.092Z,99826.19
2023-03-25T09:33:15.585Z,99833.72
2023-03-25T09:35:43.767Z,99830.47
2023-03-25T09:38:13.420Z,99867.41
2023-03-25T09:40:43.270Z,99840.44
2023-03-25T09:43:30.680Z,99845.75
2023-03-25T09:45:59.523Z,99844.09
2023-03-25T09:48:33.520Z,99850.28
2023-03-25T09:51:05.760Z,99844.88
2023-03-25T09:53:41.248Z,99849.94
2023-03-25T09:56:16.200Z,99860.41
2023-03-25T09:58:46.693Z,99853.38
2023-03-25T10:01:35.012Z,99838.66
2023-03-25T10:04:30.224Z,99851.59
2023-03-25T10:07:07.021Z,99859.47
2023-03-25T10:09:52.999Z,99859.38
2023-03-25T10:12:34.173Z,99857.69
2023-03-25T10:15:18.484Z,99874.00
2023-03-25T10:17:57.946Z,99871.94
2023-03-25T10:20:41.980Z,99870.34
2023-03-25T10:23:19.457Z,99865.47
2023-03-25T10:25:54.252Z,99863.19
2023-03-25T10:28:29.790Z,99868.09
2023-03-25T10:31:00.135Z,99872.03
2023-03-25T10:33:35.858Z,99889.78
2023-03-25T10:36:07.668Z,99861.84
2023-03-25T10:38:39.287Z,99861.59
2023-03-25T10:41:21.371Z,99875.03
2023-03-25T10:43:49.766Z,99863.78
2023-03-25T10:46:28.492Z,99863.84
2023-03-25T10:48:56.979Z,99887.88
2023-03-25T10:51:29.153Z,99870.44
2023-03-25T10:53:59.071Z,99883.09
2023-03-25T10:56:32.730Z,99871.28
2023-03-25T10:59:07.127Z,99897.16
2023-03-25T11:01:39.152Z,99887.13
2023-03-25T11:04:11.424Z,99886.22
2023-03-25T11:06:41.529Z,99878.91
2023-03-25T11:09:18.426Z,99888.84
2023-03-25T11:11:50.179Z,99883.88
2023-03-25T11:14:24.660Z,99873.38
2023-03-25T11:16:58.002Z,99864.66
2023-03-25T11:19:28.705Z,99863.44
2023-03-25T11:22:01.835Z,99870.69
2023-03-25T11:24:35.357Z,99872.53
2023-03-25T11:27:08.874Z,99880.91
2023-03-25T11:29:40.249Z,99876.03
2023-03-25T11:32:17.023Z,99866.81
2023-03-25T11:34:49.345Z,99871.31
2023-03-25T11:37:19.628Z,99880.81
2023-03-25T11:39:55.558Z,99894.47
2023-03-25T11:42:33.015Z,99877.34
2023-03-25T11:45:03.628Z,99879.69
2023-03-25T11:47:34.915Z,99877.44
2023-03-25T11:50:03.532Z,99882.88
2023-03-25T11:52:40.981Z,99865.88
2023-03-25T11:55:17.739Z,99871.91
2023-03-25T11:57:48.868Z,99862.13
2023-03-25T12:00:32.646Z,99874.63
2023-03-25T12:03:01.409Z,99848.34
2023-03-25T12:05:31.083Z,99856.88
2023-03-25T12:08:11.191Z,99842.88
2023-03-25T12:10:55.230Z,99857.06
2023-03-25T12:13:40.369Z,99868.63
2023-03-25T12:16:21.846Z,99845.63
2023-03-25T12:19:05.213Z,99854.63
2023-03-25T12:21:42.344Z,99840.06
2023-03-25T12:24:22.986Z,99839.38
2023-03-25T12:27:00.510Z,99834.97
2023-03-25T12:29:39.467Z,99841.50
2023-03-25T12:32:21.008Z,99849.84
2023-03-25T12:35:05.391Z,99838.88
2023-03-25T12:37:44.800Z,99841.84
2023-03-25T12:40:26.657Z,99864.75
2023-03-25T12:43:04.914Z,99853.31
2023-03-25T12:45:49.692Z,99853.41
2023-03-25T12:48:43.220Z,99851.34
2023-03-25T12:51:21.974Z,99862.16
2023-03-25T12:54:01.222Z,99844.22
2023-03-25T12:56:47.736Z,99835.97
2023-03-25T12:59:37.601Z,99834.09
2023-03-25T13:02:21.153Z,99829.97
2023-03-25T13:05:04.654Z,99842.41
2023-03-25T13:07:37.648Z,99848.16
2023-03-25T13:10:15.974Z,99854.31
2023-03-25T13:12:49.681Z,99840.91
2023-03-25T13:15:26.376Z,99841.69
2023-03-25T13:18:01.201Z,99847.69
2023-03-25T13:20:32.973Z,99860.84
2023-03-25T13:23:04.845Z,99867.56
2023-03-25T13:25:49.565Z,99851.66
2023-03-25T13:28:22.947Z,99867.03
2023-03-25T13:30:51.895Z,99868.00
2023-03-25T13:33:26.616Z,99837.16
2023-03-25T13:36:01.315Z,99837.91
2023-03-25T13:38:34.505Z,99844.91
2023-03-25T13:41:11.494Z,99843.66
2023-03-25T13:43:50.385Z,99834.91
2023-03-25T13:46:22.974Z,99827.50
2023-03-25T13:48:56.107Z,99847.94
2023-03-25T13:51:24.813Z,99826.25
2023-03-25T13:53:57.945Z,99847.16
2023-03-25T13:56:58.238Z,99855.25
2023-03-25T13:59:52.000Z,99858.84
2023-03-25T14:02:47.305Z,99898.34
2023-03-25T14:05:38.430Z,99903.47
2023-03-25T14:08:31.287Z,99880.53
2023-03-25T14:11:16.349Z,99888.72
2023-03-25T14:13:49.007Z,99865.22
2023-03-25T14:16:21.083Z,99869.16
2023-03-25T14:18:53.290Z,99870.31
2023-03-25T14:21:42.868Z,99867.53
2023-03-25T14:24:15.333Z,99857.50
2023-03-25T14:26:46.901Z,99860.72
2023-03-25T14:29:25.517Z,99849.38
2023-03-25T14:32:05.710Z,99865.50
2023-03-25T14:34:33.920Z,99862.94
2023-03-25T14:37:30.530Z,99853.91
2023-03-25T14:40:02.080Z,99869.28
2023-03-25T14:42:59.418Z,99892.88
2023-03-25T14:45:59.266Z,99869.00
2023-03-25T14:48:34.383Z,99881.88
2023-03-25T14:51:23.128Z,99878.44
2023-03-25T14:54:02.021Z,99877.06
2023-03-25T14:56:35.782Z,99902.47
2023-03-25T14:59:10.864Z,99900.03
2023-03-25T15:01:41.090Z,99891.63
2023-03-25T15:04:13.850Z,99888.34
2023-03-25T15:06:42.414Z,99902.97
2023-03-25T15:09:15.846Z,99908.53
2023-03-25T15:11:46.067Z,99904.03
2023-03-25T15:14:20.512Z,99908.66
2023-03-25T15:17:02.121Z,99923.13
2023-03-25T15:19:31.177Z,99946.19
2023-03-25T15:22:20.458Z,99910.47
2023-03-25T15:25:00.656Z,99915.75
2023-03-25T15:28:01.360Z,99922.84
2023-03-25T15:30:56.499Z,99913.69
2023-03-25T15:33:42.624Z,99916.78
2023-03-25T15:36:31.223Z,99920.47
2023-03-25T15:39:16.498Z,99915.88
2023-03-25T15:42:10.830Z,99926.31
2023-03-25T15:45:10.819Z,99937.34
2023-03-25T15:47:47.832Z,99946.13
2023-03-25T15:50:28.820Z,99943.13
2023-03-25T15:53:41.845Z,99938.13
2023-03-25T15:56:12.150Z,99950.03
2023-03-25T15:58:48.538Z,99969.56
2023-03-25T16:01:25.926Z,99966.78
2023-03-25T16:04:00.582Z,99984.53
2023-03-25T16:06:31.756Z,99966.84
2023-03-25T16:09:03.006Z,99974.28
2023-03-25T16:11:31.543Z,99970.06
2023-03-25T16:14:08.438Z,99983.38
2023-03-25T16:16:39.774Z,99975.69
2023-03-25T16:19:12.899Z,99984.16
2023-03-25T16:21:41.177Z,99992.94
2023-03-25T16:24:13.619Z,99998.97
2023-03-25T16:26:43.804Z,100012.69
2023-03-25T16:29:18.544Z,100001.31
2023-03-25T16:31:58.023Z,100020.84
2023-03-25T16:34:27.719Z,100015.34
2023-03-25T16:36:57.241Z,100020.78
2023-03-25T16:39:26.206Z,100021.69
2023-03-25T16:42:02.126Z,100022.53
2023-03-25T16:44:31.809Z,100036.16
2023-03-25T16:47:02.258Z,100052.84
2023-03-25T16:49:33.535Z,100035.91
2023-03-25T16:52:04.352Z,100038.94
2023-03-25T16:54:38.112Z,100038.53
2023-03-25T16:57:08.298Z,100050.44
2023-03-25T16:59:39.020Z,100048.41
2023-03-25T17:02:26.838Z,100074.72
2023-03-25T17:04:58.660Z,100066.59
2023-03-25T17:07:29.731Z,100068.72
2023-03-25T17:10:00.335Z,100076.69
2023-03-25T17:12:30.689Z,100078.09
2023-03-25T17:15:08.973Z,100078.63
2023-03-25T17:17:43.660Z,100102.34
2023-03-25T17:20:19.122Z,100103.53
2023-03-25T17:22:59.329Z,100107.44
2023-03-25T17:25:32.222Z,100103.72
2023-03-25T17:28:08.194Z,100117.47
2023-03-25T17:30:44.141Z,100123.38
2023-03-25T17:33:15.605Z,100119.69
2023-03-25T17:35:47.277Z,100136.50
2023-03-25T17:38:24.144Z,100131.03
2023-03-25T17:41:00.368Z,100140.88
2023-03-25T17:43:32.011Z,100132.22
2023-03-25T17:46:02.850Z,100150.19
2023-03-25T17:48:31.045Z,100143.75
2023-03-25T17:51:00.668Z,100155.66
2023-03-25T17:53:29.519Z,100158.53
2023-03-25T17:55:59.251Z,100164.63
2023-03-25T17:58:27.410Z,100163.31
2023-03-25T18:00:56.484Z,100175.69
2023-03-25T18:03:29.636Z,100169.41
2023-03-25T18:05:58.516Z,100179.78
2023-03-25T18:08:26.934Z,100197.22
2023-03-25T18:10:56.818Z,100212.00
2023-03-25T18:13:25.244Z,100191.44
2023-03-25T18:15:54.117Z,100207.41
2023-03-25T18:18:26.419Z,100219.59
2023-03-25T18:20:56.069Z,100215.84
2023-03-25T18:23:24.817Z,100206.69
2023-03-25T18:25:53.256Z,100221.28
2023-03-25T18:28:21.768Z,100245.38
2023-03-25T18:30:53.969Z,100223.22
2023-03-25T18:33:23.522Z,100232.00
2023-03-25T18:35:53.578Z,100256.94
2023-03-25T18:38:24.361Z,100258.09
2023-03-25T18:40:53.812Z,100249.06
2023-03-25T18:43:22.704Z,100243.31
2023-03-25T18:45:51.894Z,100248.75
2023-03-25T18:48:21.941Z,100252.00
2023-03-25T18:50:54.795Z,100255.38
2023-03-25T18:53:25.356Z,100253.72
2023-03-25T18:55:54.667Z,100252.66
2023-03-25T18:58:24.997Z,100264.91
2023-03-25T19:00:54.815Z,100275.44
2023-03-25T19:03:30.393Z,100263.91
2023-03-25T19:06:01.447Z,100275.13
2023-03-25T19:08:29.767Z,100281.22
2023-03-25T19:11:08.141Z,100272.72
2023-03-25T19:13:44.832Z,100284.13
2023-03-25T19:16:12.915Z,100291.44
2023-03-25T19:18:41.092Z,100284.66
2023-03-25T19:21:12.097Z,100288.25
2023-03-25T19:23:41.789Z,100297.88
2023-03-25T19:26:10.031Z,100311.69
2023-03-25T19:28:38.011Z,100309.78
2023-03-25T19:31:06.569Z,100299.75
2023-03-25T19:33:34.893Z,100315.22
2023-03-25T19:36:04.553Z,100312.16
2023-03-25T19:38:34.025Z,100320.63
2023-03-25T19:41:04.779Z,100317.44
2023-03-25T19:43:32.769Z,100317.06
2023-03-25T19:46:01.664Z,100325.06
2023-03-25T19:48:30.645Z,100319.78
2023-03-25T19:50:59.025Z,100326.03
2023-03-25T19:53:28.542Z,100334.34
2023-03-25T19:56:03.195Z,100337.59
2023-03-25T19:58:31.283Z,100331.84
2023-03-25T20:00:59.402Z,100342.41
2023-03-25T20:03:31.427Z,100333.53
2023-03-25T20:06:00.645Z,100338.34
2023-03-25T20:08:29.265Z,100339.22
2023-03-25T20:10:59.059Z,100336.47
2023-03-25T20:13:27.093Z,100331.03
2023-03-25T20:15:55.815Z,100344.63
2023-03-25T20:18:24.122Z,100331.72
2023-03-25T20:20:52.731Z,100329.34
2023-03-25T20:23:20.666Z,100336.34
2023-03-25T20:25:52.389Z,100335.31
2023-03-25T20:28:22.869Z,100335.81
2023-03-25T20:30:51.034Z,100341.22
2023-03-25T20:33:19.486Z,100332.75
2023-03-25T20:35:47.605Z,100333.44
2023-03-25T20:38:15.858Z,100334.28
2023-03-25T20:40:45.225Z,100327.31
2023-03-25T20:43:14.848Z,100332.59
2023-03-25T20:45:44.736Z,100337.00
2023-03-25T20:48:12.773Z,100335.31
2023-03-25T20:50:40.987Z,100339.72
2023-03-25T20:53:09.168Z,100333.94
2023-03-25T20:55:37.535Z,100343.28
2023-03-25T20:58:06.240Z,100352.09
2023-03-25T21:00:35.377Z,100348.53
2023-03-25T21:03:05.081Z,100346.66
2023-03-25T21:05:33.738Z,100353.47
2023-03-25T21:08:02.003Z,100351.09
2023-03-25T21:10:30.207Z,100359.72
2023-03-25T21:12:58.217Z,100358.56
2023-03-25T21:15:27.211Z,100362.28
2023-03-25T21:17:55.688Z,100373.00
2023-03-25T21:20:27.053Z,100367.22
2023-03-25T21:22:57.058Z,100368.34
2023-03-25T21:25:34.526Z,100366.59
2023-03-25T21:28:03.944Z,100378.84
2023-03-25T21:30:33.422Z,100368.97
2023-03-25T21:33:02.612Z,100366.97
2023-03-25T21:35:32.847Z,100372.72
2023-03-25T21:38:01.685Z,100379.56
2023-03-25T21:40:39.219Z,100376.88
2023-03-25T21:43:08.107Z,100382.78
2023-03-25T21:45:36.529Z,100389.91
2023-03-25T21:48:05.828Z,100385.38
2023-03-25T21:50:36.412Z,100396.59
2023-03-25T21:53:07.062Z,100391.16
2023-03-25T21:55:38.385Z,100397.44
2023-03-25T21:58:06.666Z,100393.81
2023-03-25T22:00:35.708Z,100389.81
2023-03-25T22:03:06.583Z,100397.13
2023-03-25T22:05:36.050Z,100401.34
2023-03-25T22:08:04.778Z,100414.75
2023-03-25T22:10:32.992Z,100413.41
2023-03-25T22:13:01.481Z,100413.06
2023-03-25T22:15:30.992Z,100410.88
2023-03-25T22:17:59.058Z,100417.16
2023-03-25T22:20:27.080Z,100426.47
2023-03-25T22:22:56.820Z,100435.50
2023-03-25T22:25:24.749Z,100431.78
2023-03-25T22:27:52.980Z,100429.06
2023-03-25T22:30:21.293Z,100435.00
2023-03-25T22:32:49.447Z,100437.06
2023-03-25T22:35:17.511Z,100431.09
2023-03-25T22:37:46.370Z,100446.41
2023-03-25T22:40:16.272Z,100443.72
2023-03-25T22:42:44.211Z,100445.75
2023-03-25T22:45:12.718Z,100452.50
2023-03-25T22:47:40.723Z,100452.53
2023-03-25T22:50:10.132Z,100460.81
2023-03-25T22:52:40.829Z,100466.28
2023-03-25T22:55:10.380Z,100467.94
2023-03-25T22:57:39.899Z,100468.94
2023-03-25T23:00:14.126Z,100477.97
2023-03-25T23:02:42.951Z,100484.53
2023-03-25T23:05:11.270Z,100481.69
2023-03-25T23:07:39.247Z,100488.16
2023-03-25T23:10:08.031Z,100485.28
2023-03-25T23:12:36.207Z,100502.16
2023-03-25T23:15:06.658Z,100505.88
2023-03-25T23:17:35.427Z,100495.59
2023-03-25T23:20:04.777Z,100498.72
2023-03-25T23:22:32.666Z,100498.66
2023-03-25T23:25:00.532Z,100510.47
2023-03-25T23:27:30.399Z,100507.38
2023-03-25T23:29:58.970Z,100506.53
2023-03-25T23:32:28.456Z,100508.19
2023-03-25T23:34:58.375Z,100509.56
2023-03-25T23:37:27.326Z,100509.25
2023-03-25T23:39:55.453Z,100503.34
2023-03-25T23:42:23.349Z,100507.00
2023-03-25T23:45:03.502Z,100506.47
2023-03-25T23:47:32.952Z,100505.81
2023-03-25T23:50:01.994Z,100509.16
2023-03-25T23:52:30.915Z,100507.41
2023-03-25T23:54:58.979Z,100511.94
2023-03-25T23:57:26.859Z,100517.22
2023-03-25T23:59:54.787Z,100518.72
